createdAt,value
2018-09-14T00:00:43.580Z,74.80
2018-09-14T00:03:12.937Z,74.80
2018-09-14T00:05:42.308Z,74.70
2018-09-14T00:08:11.687Z,74.70
2018-09-14T00:10:41.038Z,74.70
2018-09-14T00:13:10.424Z,74.60
2018-09-14T00:15:39.841Z,74.60
2018-09-14T00:18:09.245Z,74.60
2018-09-14T00:20:39.014Z,74.60
2018-09-14T00:23:08.392Z,74.70
2018-09-14T00:25:37.772Z,74.60
2018-09-14T00:28:07.216Z,74.60
2018-09-14T00:30:36.624Z,74.70
2018-09-14T00:33:06.172Z,74.80
2018-09-14T00:35:35.724Z,74.80
2018-09-14T00:38:05.096Z,75.50
2018-09-14T00:40:34.434Z,74.80
2018-09-14T00:43:03.805Z,74.80
2018-09-14T00:45:33.150Z,74.80
2018-09-14T00:48:02.518Z,74.80
2018-09-14T00:50:31.866Z,74.80
2018-09-14T00:53:01.221Z,74.80
2018-09-14T00:55:30.613Z,74.80
2018-09-14T00:57:59.973Z,74.80
2018-09-14T01:00:29.345Z,74.80
2018-09-14T01:02:58.726Z,74.90
2018-09-14T01:05:28.076Z,74.90
2018-09-14T01:07:57.432Z,74.80
2018-09-14T01:10:26.735Z,74.90
2018-09-14T01:12:56.117Z,74.90
2018-09-14T01:15:25.561Z,74.80
2018-09-14T01:17:54.926Z,74.80
2018-09-14T01:20:24.299Z,74.80
2018-09-14T01:22:53.703Z,74.80
2018-09-14T01:25:23.071Z,74.90
2018-09-14T01:27:52.453Z,74.80
2018-09-14T01:30:21.788Z,74.80
2018-09-14T01:32:51.168Z,74.80
2018-09-14T01:35:25.740Z,74.80
2018-09-14T01:37:55.190Z,74.80
2018-09-14T01:40:24.521Z,74.80
2018-09-14T01:42:53.872Z,74.80
2018-09-14T01:45:23.237Z,76.00
2018-09-14T01:47:52.578Z,75.60
2018-09-14T01:50:21.987Z,75.40
2018-09-14T01:52:51.380Z,75.10
2018-09-14T01:55:20.790Z,74.90
2018-09-14T01:57:50.159Z,74.90
2018-09-14T02:00:19.627Z,74.80
2018-09-14T02:02:48.960Z,74.80
2018-09-14T02:05:18.436Z,74.80
2018-09-14T02:07:47.786Z,74.80
2018-09-14T02:10:22.118Z,74.80
2018-09-14T02:12:52.806Z,75.50
2018-09-14T02:15:22.192Z,74.80
2018-09-14T02:17:51.538Z,74.80
2018-09-14T02:20:20.937Z,74.80
2018-09-14T02:22:50.330Z,74.80
2018-09-14T02:25:19.704Z,74.90
2018-09-14T02:27:49.016Z,74.90
2018-09-14T02:30:18.372Z,74.90
2018-09-14T02:32:47.713Z,75.60
2018-09-14T02:35:17.075Z,74.90
2018-09-14T02:37:46.413Z,74.80
2018-09-14T02:40:15.774Z,74.80
2018-09-14T02:42:45.131Z,74.80
2018-09-14T02:45:14.487Z,74.80
2018-09-14T02:47:43.838Z,74.80
2018-09-14T02:50:13.172Z,74.90
2018-09-14T02:52:42.559Z,74.90
2018-09-14T02:55:11.944Z,74.90
2018-09-14T02:57:41.430Z,74.80
2018-09-14T03:00:12.746Z,74.80
2018-09-14T03:02:42.058Z,74.80
2018-09-14T03:05:11.407Z,74.80
2018-09-14T03:07:40.759Z,74.80
2018-09-14T03:10:10.172Z,74.70
2018-09-14T03:12:39.505Z,74.60
2018-09-14T03:15:08.844Z,74.60
2018-09-14T03:17:38.180Z,74.60
2018-09-14T03:20:07.503Z,74.60
2018-09-14T03:22:36.860Z,74.60
2018-09-14T03:25:06.229Z,74.50
2018-09-14T03:27:35.665Z,74.60
2018-09-14T03:30:05.226Z,74.50
2018-09-14T03:32:34.565Z,74.50
2018-09-14T03:35:03.891Z,75.30
2018-09-14T03:37:33.282Z,75.30
2018-09-14T03:40:02.605Z,74.50
2018-09-14T03:42:32.013Z,74.50
2018-09-14T03:45:01.431Z,74.50
2018-09-14T03:47:30.849Z,74.50
2018-09-14T03:50:00.247Z,74.50
2018-09-14T03:52:29.660Z,74.50
2018-09-14T03:54:59.036Z,74.60
2018-09-14T03:57:29.119Z,74.60
2018-09-14T03:59:58.466Z,74.60
2018-09-14T04:02:27.832Z,74.60
2018-09-14T04:04:57.227Z,74.60
2018-09-14T04:07:26.553Z,74.60
2018-09-14T04:09:55.926Z,74.60
2018-09-14T04:12:25.287Z,74.80
2018-09-14T04:14:54.590Z,74.60
2018-09-14T04:17:23.925Z,74.80
2018-09-14T04:19:53.277Z,74.80
2018-09-14T04:22:22.641Z,74.80
2018-09-14T04:24:51.958Z,74.70
2018-09-14T04:27:21.330Z,74.80
2018-09-14T04:29:50.657Z,74.80
2018-09-14T04:32:19.966Z,74.80
2018-09-14T04:34:49.317Z,74.90
2018-09-14T04:37:18.747Z,74.90
2018-09-14T04:39:48.094Z,74.90
2018-09-14T04:42:17.413Z,74.90
2018-09-14T04:44:46.753Z,74.90
2018-09-14T04:47:16.092Z,74.90
2018-09-14T04:49:45.466Z,75.00
2018-09-14T04:52:14.848Z,74.90
2018-09-14T04:54:44.227Z,75.70
2018-09-14T04:57:13.693Z,74.90
2018-09-14T04:59:43.022Z,75.70
2018-09-14T05:02:12.357Z,75.00
2018-09-14T05:04:41.701Z,75.00
2018-09-14T05:07:11.069Z,75.00
2018-09-14T05:09:40.447Z,75.00
2018-09-14T05:12:09.834Z,75.00
2018-09-14T05:14:39.192Z,75.00
2018-09-14T05:17:08.608Z,75.70
2018-09-14T05:19:37.951Z,75.10
2018-09-14T05:22:07.301Z,75.10
2018-09-14T05:24:36.701Z,75.10
2018-09-14T05:27:06.052Z,75.10
2018-09-14T05:29:35.417Z,75.10
2018-09-14T05:32:04.773Z,75.10
2018-09-14T05:34:34.173Z,75.10
2018-09-14T05:37:03.540Z,75.10
2018-09-14T05:39:32.859Z,75.10
2018-09-14T05:42:02.232Z,75.10
2018-09-14T05:44:31.586Z,75.00
2018-09-14T05:47:00.933Z,75.00
2018-09-14T05:49:30.288Z,75.00
2018-09-14T05:51:59.623Z,75.00
2018-09-14T05:54:28.952Z,75.00
2018-09-14T05:56:58.320Z,75.10
2018-09-14T05:59:27.709Z,75.00
2018-09-14T06:01:57.037Z,75.10
2018-09-14T06:04:26.451Z,75.10
2018-09-14T06:06:55.784Z,75.10
2018-09-14T06:09:25.231Z,75.00
2018-09-14T06:11:54.536Z,74.90
2018-09-14T06:14:24.007Z,74.90
2018-09-14T06:16:53.380Z,74.90
2018-09-14T06:19:22.717Z,74.90
2018-09-14T06:21:52.060Z,74.90
2018-09-14T06:24:21.504Z,74.90
2018-09-14T06:26:50.842Z,74.90
2018-09-14T06:29:20.282Z,74.80
2018-09-14T06:31:49.687Z,74.80
2018-09-14T06:34:19.063Z,74.70
2018-09-14T06:36:48.376Z,74.60
2018-09-14T06:39:17.767Z,74.60
2018-09-14T06:41:47.926Z,74.60
2018-09-14T06:44:17.338Z,74.60
2018-09-14T06:46:46.689Z,74.50
2018-09-14T06:49:16.160Z,74.50
2018-09-14T06:51:45.538Z,74.40
2018-09-14T06:54:14.924Z,74.50
2018-09-14T06:56:44.330Z,74.50
2018-09-14T06:59:13.739Z,74.40
2018-09-14T07:01:43.120Z,74.40
2018-09-14T07:04:12.488Z,74.40
2018-09-14T07:06:41.887Z,74.40
2018-09-14T07:09:11.430Z,74.40
2018-09-14T07:11:40.909Z,74.30
2018-09-14T07:14:10.252Z,74.30
2018-09-14T07:16:39.618Z,74.20
2018-09-14T07:19:09.173Z,74.20
2018-09-14T07:21:38.580Z,74.10
2018-09-14T07:24:07.937Z,74.20
2018-09-14T07:26:37.350Z,74.10
2018-09-14T07:29:06.859Z,74.10
2018-09-14T07:31:36.171Z,74.10
2018-09-14T07:34:05.557Z,74.10
2018-09-14T07:36:35.018Z,74.10
2018-09-14T07:39:05.396Z,74.00
2018-09-14T07:41:34.758Z,73.90
2018-09-14T07:44:04.161Z,73.90
2018-09-14T07:46:34.129Z,74.30
2018-09-14T07:49:03.530Z,74.20
2018-09-14T07:51:32.881Z,73.50
2018-09-14T07:54:02.281Z,73.90
2018-09-14T07:56:31.861Z,73.70
2018-09-14T07:59:01.253Z,74.10
2018-09-14T08:01:30.611Z,73.40
2018-09-14T08:04:00.076Z,73.30
2018-09-14T08:06:29.612Z,73.30
2018-09-14T08:08:59.394Z,73.10
2018-09-14T08:11:28.799Z,73.30
2018-09-14T08:13:58.182Z,73.30
2018-09-14T08:16:27.527Z,73.30
2018-09-14T08:18:56.936Z,73.30
2018-09-14T08:21:26.301Z,73.20
2018-09-14T08:23:55.604Z,73.10
2018-09-14T08:26:25.017Z,73.40
2018-09-14T08:28:54.410Z,73.60
2018-09-14T08:31:24.153Z,73.40
2018-09-14T08:33:53.500Z,72.50
2018-09-14T08:36:23.148Z,73.10
2018-09-14T08:38:52.608Z,73.10
2018-09-14T08:41:22.054Z,73.10
2018-09-14T08:43:51.601Z,73.10
2018-09-14T08:46:21.032Z,73.10
2018-09-14T08:48:50.446Z,73.10
2018-09-14T08:51:19.793Z,73.10
2018-09-14T08:53:49.236Z,73.10
2018-09-14T08:56:18.613Z,73.00
2018-09-14T08:58:47.985Z,73.00
2018-09-14T09:01:17.349Z,73.00
2018-09-14T09:03:46.722Z,72.80
2018-09-14T09:06:16.177Z,72.80
2018-09-14T09:08:45.564Z,72.70
2018-09-14T09:11:15.011Z,72.80
2018-09-14T09:13:44.308Z,72.70
2018-09-14T09:16:13.739Z,72.70
2018-09-14T09:18:43.117Z,72.70
2018-09-14T09:21:12.603Z,72.60
2018-09-14T09:23:41.882Z,72.60
2018-09-14T09:26:11.402Z,72.60
2018-09-14T09:28:40.779Z,73.30
2018-09-14T09:31:10.175Z,72.60
2018-09-14T09:33:39.566Z,72.30
2018-09-14T09:36:09.760Z,72.40
2018-09-14T09:38:39.157Z,72.30
2018-09-14T09:41:08.577Z,72.40
2018-09-14T09:43:38.201Z,72.40
2018-09-14T09:46:07.341Z,72.40
2018-09-14T09:48:36.741Z,72.40
2018-09-14T09:51:06.281Z,72.40
2018-09-14T09:53:35.581Z,71.80
2018-09-14T09:56:04.919Z,72.30
2018-09-14T09:58:34.328Z,72.30
2018-09-14T10:01:08.687Z,72.30
2018-09-14T10:03:45.690Z,72.20
2018-09-14T10:06:20.078Z,72.20
2018-09-14T10:08:49.471Z,72.10
2018-09-14T10:11:18.817Z,72.10
2018-09-14T10:13:48.311Z,72.00
2018-09-14T10:16:17.705Z,71.90
2018-09-14T10:18:47.131Z,71.60
2018-09-14T10:21:16.633Z,71.60
2018-09-14T10:23:46.192Z,71.40
2018-09-14T10:26:15.517Z,71.70
2018-09-14T10:28:44.969Z,71.70
2018-09-14T10:31:14.567Z,71.50
2018-09-14T10:33:43.978Z,72.30
2018-09-14T10:36:13.496Z,71.40
2018-09-14T10:38:43.636Z,71.30
2018-09-14T10:41:13.007Z,71.30
2018-09-14T10:43:42.428Z,71.10
2018-09-14T10:46:11.789Z,71.10
2018-09-14T10:48:41.248Z,71.10
2018-09-14T10:51:10.634Z,71.10
2018-09-14T10:53:39.979Z,71.00
2018-09-14T10:56:09.421Z,71.00
2018-09-14T10:58:43.266Z,71.00
2018-09-14T11:01:23.160Z,71.10
2018-09-14T11:04:28.698Z,71.10
2018-09-14T11:06:58.059Z,71.00
2018-09-14T11:09:27.379Z,70.90
2018-09-14T11:11:56.724Z,70.90
2018-09-14T11:14:26.075Z,70.80
2018-09-14T11:16:55.453Z,70.80
2018-09-14T11:19:24.831Z,70.80
2018-09-14T11:21:54.224Z,70.80
2018-09-14T11:24:23.571Z,70.80
2018-09-14T11:26:52.972Z,70.80
2018-09-14T11:29:22.349Z,70.80
2018-09-14T11:31:51.748Z,70.60
2018-09-14T11:34:21.137Z,70.60
2018-09-14T11:36:50.515Z,70.60
2018-09-14T11:39:19.934Z,70.50
2018-09-14T11:41:49.419Z,70.40
2018-09-14T11:44:18.790Z,70.00
2018-09-14T11:46:48.225Z,70.30
2018-09-14T11:49:17.595Z,70.30
2018-09-14T11:51:47.010Z,71.10
2018-09-14T11:54:16.415Z,70.20
2018-09-14T11:56:45.799Z,70.10
2018-09-14T11:59:15.213Z,70.00
2018-09-14T12:01:44.645Z,70.00
2018-09-14T12:04:14.040Z,69.90
2018-09-14T12:06:43.466Z,70.00
2018-09-14T12:09:13.559Z,70.00
2018-09-14T12:11:43.124Z,70.00
2018-09-14T12:14:12.549Z,69.80
2018-09-14T12:16:41.921Z,69.80
2018-09-14T12:19:11.299Z,69.80
2018-09-14T12:21:40.652Z,69.70
2018-09-14T12:24:10.109Z,69.80
2018-09-14T12:26:39.594Z,69.70
2018-09-14T12:29:09.051Z,69.50
2018-09-14T12:31:38.447Z,70.10
2018-09-14T12:34:08.131Z,69.40
2018-09-14T12:36:37.522Z,69.50
2018-09-14T12:39:09.246Z,69.50
2018-09-14T12:41:38.837Z,69.40
2018-09-14T12:44:08.496Z,69.40
2018-09-14T12:46:37.889Z,69.00
2018-09-14T12:49:07.301Z,69.00
2018-09-14T12:51:36.705Z,69.00
2018-09-14T12:54:06.109Z,69.00
2018-09-14T12:56:35.504Z,68.70
2018-09-14T12:59:04.921Z,69.10
2018-09-14T13:01:34.275Z,69.10
2018-09-14T13:04:03.679Z,69.00
2018-09-14T13:06:33.571Z,69.00
2018-09-14T13:09:03.066Z,68.80
2018-09-14T13:11:32.507Z,68.80
2018-09-14T13:14:01.870Z,68.80
2018-09-14T13:16:31.911Z,68.70
2018-09-14T13:19:01.357Z,68.70
2018-09-14T13:21:30.914Z,68.60
2018-09-14T13:24:00.352Z,68.60
2018-09-14T13:26:29.979Z,68.50
2018-09-14T13:28:59.332Z,68.40
2018-09-14T13:31:28.754Z,68.30
2018-09-14T13:33:58.099Z,68.00
2018-09-14T13:36:27.474Z,68.40
2018-09-14T13:38:56.864Z,68.50
2018-09-14T13:41:26.510Z,68.80
2018-09-14T13:43:55.965Z,68.70
2018-09-14T13:46:25.356Z,68.70
2018-09-14T13:48:54.710Z,68.60
2018-09-14T13:51:24.131Z,68.60
2018-09-14T13:53:53.532Z,68.50
2018-09-14T13:56:23.800Z,68.50
2018-09-14T13:58:53.211Z,68.40
2018-09-14T14:01:22.671Z,69.00
2018-09-14T14:03:53.898Z,68.20
2018-09-14T14:06:23.333Z,68.20
2018-09-14T14:08:52.734Z,68.20
2018-09-14T14:11:22.225Z,68.20
2018-09-14T14:13:51.898Z,69.00
2018-09-14T14:16:21.331Z,67.70
2018-09-14T14:18:50.741Z,68.10
2018-09-14T14:21:20.297Z,68.10
2018-09-14T14:23:49.720Z,68.00
2018-09-14T14:26:19.109Z,67.80
2018-09-14T14:28:48.651Z,67.70
2018-09-14T14:31:18.057Z,68.30
2018-09-14T14:33:47.453Z,67.50
2018-09-14T14:36:16.779Z,67.40
2018-09-14T14:38:46.254Z,67.40
2018-09-14T14:41:16.756Z,67.50
2018-09-14T14:43:46.281Z,67.50
2018-09-14T14:46:15.711Z,67.50
2018-09-14T14:48:45.151Z,67.30
2018-09-14T14:51:14.513Z,67.50
2018-09-14T14:53:43.914Z,67.50
2018-09-14T14:56:13.366Z,67.50
2018-09-14T14:58:42.864Z,67.30
2018-09-14T15:01:12.287Z,67.30
2018-09-14T15:03:41.654Z,67.30
2018-09-14T15:06:11.057Z,67.20
2018-09-14T15:08:40.535Z,67.10
2018-09-14T15:11:09.994Z,67.10
2018-09-14T15:13:39.375Z,67.10
2018-09-14T15:16:08.770Z,67.20
2018-09-14T15:18:38.178Z,67.20
2018-09-14T15:21:07.888Z,67.30
2018-09-14T15:23:37.341Z,67.40
2018-09-14T15:26:06.902Z,67.50
2018-09-14T15:28:37.053Z,67.30
2018-09-14T15:31:07.095Z,67.30
2018-09-14T15:33:36.459Z,67.10
2018-09-14T15:36:05.864Z,67.20
2018-09-14T15:38:35.221Z,67.20
2018-09-14T15:41:04.621Z,67.00
2018-09-14T15:43:34.897Z,67.00
2018-09-14T15:46:04.314Z,67.10
2018-09-14T15:48:33.830Z,67.10
2018-09-14T15:51:03.322Z,67.10
2018-09-14T15:53:32.896Z,67.20
2018-09-14T15:56:02.271Z,67.20
2018-09-14T15:58:31.645Z,67.10
2018-09-14T16:01:01.024Z,66.90
2018-09-14T16:03:30.405Z,66.90
2018-09-14T16:05:59.907Z,66.90
2018-09-14T16:08:29.392Z,66.80
2018-09-14T16:10:58.822Z,66.80
2018-09-14T16:13:28.289Z,66.80
2018-09-14T16:15:57.658Z,66.80
2018-09-14T16:18:27.252Z,66.70
2018-09-14T16:20:56.648Z,66.60
2018-09-14T16:23:26.065Z,66.60
2018-09-14T16:25:55.460Z,66.50
2018-09-14T16:28:25.010Z,66.50
2018-09-14T16:30:54.435Z,66.50
2018-09-14T16:33:23.900Z,66.60
2018-09-14T16:35:53.280Z,66.50
2018-09-14T16:38:22.706Z,66.70
2018-09-14T16:40:52.093Z,66.60
2018-09-14T16:43:21.505Z,66.80
2018-09-14T16:45:50.961Z,67.60
2018-09-14T16:48:20.454Z,66.80
2018-09-14T16:50:49.874Z,66.80
2018-09-14T16:53:19.299Z,66.70
2018-09-14T16:55:48.710Z,66.70
2018-09-14T16:58:18.317Z,66.60
2018-09-14T17:00:47.768Z,66.60
2018-09-14T17:03:17.178Z,66.70
2018-09-14T17:05:46.568Z,66.60
2018-09-14T17:08:15.949Z,66.70
2018-09-14T17:10:45.396Z,66.50
2018-09-14T17:13:14.787Z,66.50
2018-09-14T17:15:44.176Z,67.30
2018-09-14T17:18:13.576Z,66.30
2018-09-14T17:20:43.003Z,66.70
2018-09-14T17:23:12.374Z,66.80
2018-09-14T17:25:41.765Z,66.60
2018-09-14T17:28:11.132Z,66.40
2018-09-14T17:30:40.546Z,66.40
2018-09-14T17:33:09.943Z,66.40
2018-09-14T17:35:39.434Z,66.40
2018-09-14T17:38:09.005Z,66.40
2018-09-14T17:40:38.404Z,66.30
2018-09-14T17:43:07.890Z,66.10
2018-09-14T17:45:37.335Z,66.30
2018-09-14T17:48:06.758Z,66.40
2018-09-14T17:50:36.214Z,66.40
2018-09-14T17:53:05.572Z,66.50
2018-09-14T17:55:35.027Z,66.60
2018-09-14T17:58:04.401Z,66.60
2018-09-14T18:00:33.859Z,67.10
2018-09-14T18:03:03.267Z,67.10
2018-09-14T18:05:32.686Z,67.00
2018-09-14T18:08:02.080Z,66.90
2018-09-14T18:10:31.536Z,67.90
2018-09-14T18:13:01.019Z,66.90
2018-09-14T18:15:30.502Z,66.90
2018-09-14T18:17:59.997Z,67.00
2018-09-14T18:20:29.410Z,67.10
2018-09-14T18:22:58.818Z,67.00
2018-09-14T18:25:28.282Z,67.00
2018-09-14T18:27:57.735Z,67.10
2018-09-14T18:30:27.099Z,67.10
2018-09-14T18:32:56.500Z,67.10
2018-09-14T18:35:25.951Z,67.10
2018-09-14T18:37:55.449Z,67.10
2018-09-14T18:40:24.846Z,67.10
2018-09-14T18:42:54.225Z,67.10
2018-09-14T18:45:23.655Z,67.20
2018-09-14T18:47:53.196Z,67.10
2018-09-14T18:50:22.655Z,68.00
2018-09-14T18:52:54.006Z,67.20
2018-09-14T18:55:23.455Z,67.30
2018-09-14T18:57:53.108Z,67.20
2018-09-14T19:00:22.630Z,67.30
2018-09-14T19:02:52.842Z,67.40
2018-09-14T19:05:23.164Z,67.40
2018-09-14T19:07:53.189Z,67.40
2018-09-14T19:10:22.686Z,67.40
2018-09-14T19:12:52.178Z,68.20
2018-09-14T19:15:21.618Z,67.40
2018-09-14T19:17:51.047Z,67.30
2018-09-14T19:20:20.531Z,67.40
2018-09-14T19:22:49.968Z,67.40
2018-09-14T19:25:23.104Z,67.40
2018-09-14T19:27:52.544Z,67.40
2018-09-14T19:30:24.433Z,67.50
2018-09-14T19:32:54.013Z,67.50
2018-09-14T19:35:23.764Z,67.50
2018-09-14T19:38:12.528Z,67.50
2018-09-14T19:41:05.281Z,67.50
2018-09-14T19:43:36.418Z,67.60
2018-09-14T19:46:05.933Z,67.50
2018-09-14T19:48:35.431Z,67.60
2018-09-14T19:51:05.884Z,67.60
2018-09-14T19:53:35.325Z,67.60
2018-09-14T19:56:04.805Z,67.70
2018-09-14T19:58:34.256Z,67.70
2018-09-14T20:01:03.782Z,67.80
2018-09-14T20:03:33.424Z,67.80
2018-09-14T20:06:03.104Z,67.80
2018-09-14T20:08:32.557Z,67.80
2018-09-14T20:11:01.982Z,67.80
2018-09-14T20:13:31.545Z,67.90
2018-09-14T20:16:01.090Z,67.80
2018-09-14T20:18:30.638Z,67.80
2018-09-14T20:21:00.022Z,67.70
2018-09-14T20:23:29.442Z,67.60
2018-09-14T20:25:59.684Z,67.50
2018-09-14T20:28:29.120Z,67.50
2018-09-14T20:30:58.535Z,67.90
2018-09-14T20:33:27.941Z,68.00
2018-09-14T20:35:57.402Z,67.90
2018-09-14T20:38:26.825Z,67.60
2018-09-14T20:40:56.305Z,67.50
2018-09-14T20:43:25.726Z,67.40
2018-09-14T20:45:55.172Z,67.50
2018-09-14T20:48:24.678Z,67.50
2018-09-14T20:50:54.563Z,67.60
2018-09-14T20:53:23.967Z,67.60
2018-09-14T20:55:53.362Z,67.70
2018-09-14T20:58:22.873Z,67.80
2018-09-14T21:00:52.303Z,67.80
2018-09-14T21:03:21.785Z,68.20
2018-09-14T21:05:51.194Z,68.20
2018-09-14T21:08:20.610Z,68.20
2018-09-14T21:10:50.004Z,68.10
2018-09-14T21:13:19.457Z,68.10
2018-09-14T21:15:48.901Z,68.00
2018-09-14T21:18:18.270Z,68.00
2018-09-14T21:20:47.673Z,67.90
2018-09-14T21:23:17.110Z,68.00
2018-09-14T21:25:46.897Z,68.00
2018-09-14T21:28:16.307Z,68.10
2018-09-14T21:30:45.700Z,68.10
2018-09-14T21:33:15.108Z,68.20
2018-09-14T21:35:44.479Z,68.20
2018-09-14T21:38:13.858Z,68.30
2018-09-14T21:40:43.237Z,68.30
2018-09-14T21:43:12.716Z,68.30
2018-09-14T21:45:42.152Z,68.30
2018-09-14T21:48:11.610Z,68.20
2018-09-14T21:50:41.013Z,68.30
2018-09-14T21:53:10.449Z,68.20
2018-09-14T21:55:39.887Z,68.30
2018-09-14T21:58:09.265Z,68.30
2018-09-14T22:00:43.689Z,68.30
2018-09-14T22:03:13.179Z,68.30
2018-09-14T22:05:42.639Z,68.30
2018-09-14T22:08:12.050Z,68.40
2018-09-14T22:10:41.445Z,68.30
2018-09-14T22:13:10.806Z,68.30
2018-09-14T22:15:40.257Z,68.30
2018-09-14T22:18:09.616Z,68.40
2018-09-14T22:20:39.002Z,68.60
2018-09-14T22:23:08.403Z,68.50
2018-09-14T22:25:37.798Z,68.30
2018-09-14T22:28:07.294Z,68.20
2018-09-14T22:30:36.644Z,68.20
2018-09-14T22:33:06.201Z,68.20
2018-09-14T22:35:35.604Z,68.10
2018-09-14T22:38:05.025Z,68.00
2018-09-14T22:40:34.431Z,67.90
2018-09-14T22:43:03.856Z,68.10
2018-09-14T22:45:33.301Z,68.00
2018-09-14T22:48:02.688Z,67.90
2018-09-14T22:50:32.075Z,67.80
2018-09-14T22:53:01.488Z,67.70
2018-09-14T22:55:30.855Z,67.80
2018-09-14T22:58:00.213Z,67.80
2018-09-14T23:00:34.871Z,67.60
2018-09-14T23:03:04.263Z,67.70
2018-09-14T23:05:33.713Z,67.60
2018-09-14T23:08:03.108Z,67.50
2018-09-14T23:10:32.459Z,67.50
2018-09-14T23:13:01.866Z,67.40
2018-09-14T23:15:31.285Z,67.30
2018-09-14T23:18:00.766Z,67.90
2018-09-14T23:20:30.061Z,67.10
2018-09-14T23:22:59.455Z,67.20
2018-09-14T23:25:28.784Z,67.10
2018-09-14T23:27:58.191Z,67.20
2018-09-14T23:30:27.557Z,67.30
2018-09-14T23:32:56.944Z,67.40
2018-09-14T23:35:26.326Z,67.40
2018-09-14T23:37:55.758Z,67.50
2018-09-14T23:40:25.634Z,67.90
2018-09-14T23:42:55.020Z,67.90
2018-09-14T23:45:24.398Z,67.90
2018-09-14T23:47:53.775Z,67.70
2018-09-14T23:50:23.696Z,67.80
2018-09-14T23:52:53.124Z,67.60
2018-09-14T23:55:22.570Z,67.70
2018-09-14T23:57:51.951Z,67.60
